Time;durP1;ratioP1;P1;durP2;ratioP2;P2;SDS_P1;SDS_P2;PMS_P1;PMS_P2;Temp;Humidity;BMP_temperature;BMP_pressure;BME280_temperature;BME280_humidity;BME280_pressure;Samples;Min_cycle;Max_cycle;Signal;HPM_P1;HPM_P2
2022/09/15 00:01:40;;;;;;;;;;;12.90;99.90;;;;;;5013284;28;19928;-67
2022/09/15 00:04:06;;;;;;;;;;;12.90;99.90;;;;;;5008289;28;19925;-67
2022/09/15 00:06:32;;;;;;;;;;;13.00;99.90;;;;;;5030505;28;19925;-67
2022/09/15 00:08:58;;;;;;;;;;;13.00;99.90;;;;;;5014020;28;19925;-67
2022/09/15 00:11:28;;;;;;;;;;;13.10;99.90;;;;;;5025633;28;19928;-67
2022/09/15 00:13:54;;;;;;;;;;;13.20;99.90;;;;;;5031993;28;20809;-67
2022/09/15 00:16:21;;;;;;;;;;;13.20;99.90;;;;;;5031360;28;20024;-67
2022/09/15 00:18:46;;;;;;;;;;;13.30;99.90;;;;;;5030264;28;19967;-67
2022/09/15 00:21:16;;;;;;;;;;;13.30;99.90;;;;;;5024305;28;20105;-67
2022/09/15 00:23:42;;;;;;;;;;;13.30;99.90;;;;;;5030258;28;20615;-67
2022/09/15 00:26:08;;;;;;;;;;;13.40;99.90;;;;;;5028169;28;20006;-67
2022/09/15 00:28:34;;;;;;;;;;;13.40;99.90;;;;;;5011682;28;19929;-67
2022/09/15 00:31:02;;;;;;;;;;;13.50;99.90;;;;;;5012193;28;20050;-68
2022/09/15 00:33:28;;;;;;;;;;;13.60;99.90;;;;;;5012276;28;20000;-67
2022/09/15 00:35:53;;;;;;;;;;;13.60;99.90;;;;;;5026043;28;20000;-67
2022/09/15 00:38:19;;;;;;;;;;;13.70;99.90;;;;;;5011869;28;19921;-67
2022/09/15 00:40:50;;;;;;;;;;;13.70;99.90;;;;;;5028345;28;20530;-67
2022/09/15 00:43:17;;;;;;;;;;;13.70;99.90;;;;;;5029644;28;19929;-67
2022/09/15 00:45:43;;;;;;;;;;;13.80;99.90;;;;;;5028759;28;21120;-67
2022/09/15 00:48:11;;;;;;;;;;;13.80;99.90;;;;;;5025136;28;20410;-67
2022/09/15 00:50:38;;;;;;;;;;;13.80;99.90;;;;;;5027892;28;19932;-67
2022/09/15 00:53:04;;;;;;;;;;;13.90;99.90;;;;;;5028414;28;19936;-67
2022/09/15 00:55:41;;;;;;;;;;;13.90;99.90;;;;;;5011707;28;20015;-67
2022/09/15 00:58:11;;;;;;;;;;;14.00;99.90;;;;;;5012756;28;19952;-67
2022/09/15 01:00:39;;;;;;;;;;;13.90;99.90;;;;;;5011934;28;19933;-67
2022/09/15 01:03:05;;;;;;;;;;;14.00;99.90;;;;;;5014028;28;19928;-67
2022/09/15 01:05:33;;;;;;;;;;;14.00;99.90;;;;;;5012528;28;19925;-67
2022/09/15 01:08:01;;;;;;;;;;;14.00;99.90;;;;;;5028404;28;19944;-67
2022/09/15 01:10:29;;;;;;;;;;;14.00;99.90;;;;;;5028074;28;19929;-67
2022/09/15 01:12:56;;;;;;;;;;;14.00;99.90;;;;;;5012993;28;19937;-67
2022/09/15 01:15:24;;;;;;;;;;;14.10;99.90;;;;;;5029803;28;19921;-67
2022/09/15 01:17:53;;;;;;;;;;;14.10;99.90;;;;;;5023750;28;19957;-67
2022/09/15 01:20:32;;;;;;;;;;;14.10;99.90;;;;;;5015873;28;19921;-67
2022/09/15 01:23:10;;;;;;;;;;;14.10;99.90;;;;;;5030096;28;19921;-67
2022/09/15 01:25:49;;;;;;;;;;;14.10;99.90;;;;;;5016059;28;19928;-67
2022/09/15 01:28:28;;;;;;;;;;;14.10;99.90;;;;;;5030875;28;19925;-67
2022/09/15 01:30:58;;;;;;;;;;;14.00;99.90;;;;;;5033526;28;20418;-67
2022/09/15 01:33:34;;;;;;;;;;;14.00;99.90;;;;;;5034588;28;20031;-67
2022/09/15 01:36:03;;;;;;;;;;;14.00;99.90;;;;;;5015358;28;19921;-67
2022/09/15 01:38:38;;;;;;;;;;;14.00;99.90;;;;;;5030901;28;20533;-67
2022/09/15 01:41:16;;;;;;;;;;;14.00;99.90;;;;;;5015148;28;19929;-67
2022/09/15 01:43:45;;;;;;;;;;;14.00;99.90;;;;;;5033949;28;19921;-67
2022/09/15 01:46:13;;;;;;;;;;;14.00;99.90;;;;;;5030547;28;20377;-67
2022/09/15 01:48:39;;;;;;;;;;;14.10;99.90;;;;;;5013920;28;19921;-67
2022/09/15 01:51:05;;;;;;;;;;;14.10;99.90;;;;;;5015307;28;19925;-67
2022/09/15 01:53:32;;;;;;;;;;;14.10;99.90;;;;;;5014973;28;19925;-67
2022/09/15 01:56:04;;;;;;;;;;;14.10;99.90;;;;;;5032983;28;19925;-67
2022/09/15 01:58:31;;;;;;;;;;;14.10;99.90;;;;;;5028995;28;19921;-67
2022/09/15 02:01:02;;;;;;;;;;;14.10;99.90;;;;;;5014751;28;19980;-67
2022/09/15 02:03:43;;;;;;;;;;;14.10;99.90;;;;;;5015618;28;19971;-67
2022/09/15 02:06:15;;;;;;;;;;;14.10;99.90;;;;;;5014267;28;19925;-67
2022/09/15 02:09:00;;;;;;;;;;;14.00;99.90;;;;;;5012268;28;20343;-67
2022/09/15 02:11:27;;;;;;;;;;;14.00;99.90;;;;;;5031135;28;19921;-67
2022/09/15 02:13:57;;;;;;;;;;;14.00;99.90;;;;;;5015514;28;20232;-67
2022/09/15 02:16:24;;;;;;;;;;;14.00;99.90;;;;;;5013312;28;19932;-67
2022/09/15 02:19:09;;;;;;;;;;;14.00;99.90;;;;;;5013709;28;19921;-67
2022/09/15 02:21:36;;;;;;;;;;;14.00;99.90;;;;;;5023588;28;19925;-67
2022/09/15 02:24:05;;;;;;;;;;;13.90;99.90;;;;;;5015189;28;20252;-67
2022/09/15 02:26:32;;;;;;;;;;;14.00;99.90;;;;;;5031395;28;19972;-67
2022/09/15 02:28:59;;;;;;;;;;;14.00;99.90;;;;;;5014631;28;19967;-67
2022/09/15 02:31:26;;;;;;;;;;;14.00;99.90;;;;;;5031933;28;19921;-67
2022/09/15 02:34:12;;;;;;;;;;;14.10;99.90;;;;;;5010086;28;21383;-67
2022/09/15 02:36:38;;;;;;;;;;;14.20;99.90;;;;;;5025931;28;19983;-67
2022/09/15 02:39:06;;;;;;;;;;;14.20;99.90;;;;;;5014874;28;20649;-67
2022/09/15 02:41:33;;;;;;;;;;;14.20;99.90;;;;;;5012718;28;19929;-67
2022/09/15 02:43:58;;;;;;;;;;;14.20;99.90;;;;;;5011531;28;20035;-67
2022/09/15 02:46:24;;;;;;;;;;;14.20;99.90;;;;;;5014278;28;19987;-67
2022/09/15 02:48:49;;;;;;;;;;;14.20;99.90;;;;;;5031081;28;20032;-67
2022/09/15 02:51:18;;;;;;;;;;;14.20;99.90;;;;;;5013595;28;19932;-67
2022/09/15 02:53:45;;;;;;;;;;;14.20;99.90;;;;;;5032289;28;19929;-67
2022/09/15 02:56:10;;;;;;;;;;;14.20;99.90;;;;;;5013974;28;19960;-67
2022/09/15 02:58:36;;;;;;;;;;;14.20;99.90;;;;;;5011762;28;19972;-67
2022/09/15 03:01:05;;;;;;;;;;;14.10;99.90;;;;;;5031901;28;19932;-67
2022/09/15 03:03:31;;;;;;;;;;;14.10;99.90;;;;;;5014921;28;19921;-67
2022/09/15 03:06:15;;;;;;;;;;;14.10;99.90;;;;;;5029903;28;20287;-67
2022/09/15 03:08:47;;;;;;;;;;;14.20;99.90;;;;;;5032181;28;19979;-67
2022/09/15 03:11:12;;;;;;;;;;;14.10;99.90;;;;;;5032178;28;19928;-67
2022/09/15 03:13:38;;;;;;;;;;;14.10;99.90;;;;;;5014797;28;19925;-67
2022/09/15 03:16:08;;;;;;;;;;;14.10;99.90;;;;;;5032307;28;19924;-67
2022/09/15 03:18:33;;;;;;;;;;;14.10;99.90;;;;;;5031513;28;19932;-67
2022/09/15 03:21:00;;;;;;;;;;;14.10;99.90;;;;;;5027163;28;19944;-67
2022/09/15 03:23:26;;;;;;;;;;;14.10;99.90;;;;;;5031795;28;19933;-67
2022/09/15 03:25:51;;;;;;;;;;;14.00;99.90;;;;;;5032391;28;20268;-67
2022/09/15 03:28:17;;;;;;;;;;;14.10;99.90;;;;;;5030772;28;19929;-67
2022/09/15 03:30:43;;;;;;;;;;;14.10;99.90;;;;;;5014128;28;19952;-67
2022/09/15 03:33:08;;;;;;;;;;;14.10;99.90;;;;;;5015685;28;20440;-67
2022/09/15 03:35:34;;;;;;;;;;;14.10;99.90;;;;;;5010950;28;19921;-67
2022/09/15 03:37:59;;;;;;;;;;;14.00;99.90;;;;;;5027454;28;20367;-67
2022/09/15 03:40:25;;;;;;;;;;;14.10;99.90;;;;;;4993684;28;19921;-67
2022/09/15 03:42:50;;;;;;;;;;;14.10;99.90;;;;;;5031983;28;19925;-67
2022/09/15 03:45:16;;;;;;;;;;;14.00;99.90;;;;;;5013288;28;19921;-67
2022/09/15 03:47:41;;;;;;;;;;;14.00;99.90;;;;;;5031547;28;19932;-67
2022/09/15 03:50:07;;;;;;;;;;;14.00;99.90;;;;;;5010394;28;20375;-67
2022/09/15 03:52:32;;;;;;;;;;;14.00;99.90;;;;;;5026647;28;19960;-67
2022/09/15 03:54:58;;;;;;;;;;;14.00;99.90;;;;;;5011434;28;19925;-67
2022/09/15 03:57:23;;;;;;;;;;;14.00;99.90;;;;;;5020535;28;20045;-67
2022/09/15 03:59:49;;;;;;;;;;;14.00;99.90;;;;;;5009005;28;19925;-67
2022/09/15 04:02:14;;;;;;;;;;;14.00;99.90;;;;;;4996251;28;19921;-67
2022/09/15 04:04:40;;;;;;;;;;;14.00;99.90;;;;;;5011194;28;19932;-67
2022/09/15 04:07:07;;;;;;;;;;;13.90;99.90;;;;;;5007588;28;20401;-68
2022/09/15 04:09:33;;;;;;;;;;;14.00;99.90;;;;;;5025628;28;19929;-67
2022/09/15 04:11:58;;;;;;;;;;;13.90;99.90;;;;;;5009165;28;19922;-68
2022/09/15 04:14:24;;;;;;;;;;;13.90;99.90;;;;;;5008716;28;19925;-67
2022/09/15 04:16:49;;;;;;;;;;;13.90;99.90;;;;;;4997134;28;19935;-67
2022/09/15 04:19:15;;;;;;;;;;;13.80;99.90;;;;;;5028723;28;19952;-67
2022/09/15 04:21:40;;;;;;;;;;;13.80;99.90;;;;;;5001939;28;19975;-67
2022/09/15 04:24:06;;;;;;;;;;;13.80;99.90;;;;;;5021991;28;20389;-67
2022/09/15 04:26:33;;;;;;;;;;;13.80;99.90;;;;;;5011630;28;19925;-67
2022/09/15 04:29:00;;;;;;;;;;;13.70;99.90;;;;;;5013444;28;19975;-67
2022/09/15 04:31:25;;;;;;;;;;;13.70;99.90;;;;;;5028803;28;19921;-67
2022/09/15 04:33:52;;;;;;;;;;;13.70;99.90;;;;;;5029087;28;20437;-67
2022/09/15 04:36:19;;;;;;;;;;;13.70;99.90;;;;;;5012464;28;20023;-67
2022/09/15 04:38:45;;;;;;;;;;;13.70;99.90;;;;;;5009000;28;19936;-67
2022/09/15 04:41:11;;;;;;;;;;;13.60;99.90;;;;;;4994943;28;19925;-67
2022/09/15 04:43:36;;;;;;;;;;;13.50;99.90;;;;;;5014246;28;19925;-67
2022/09/15 04:46:02;;;;;;;;;;;13.50;99.90;;;;;;5031356;28;20004;-67
2022/09/15 04:48:29;;;;;;;;;;;13.40;99.90;;;;;;5013373;28;19965;-67
2022/09/15 04:50:59;;;;;;;;;;;13.40;99.90;;;;;;4992937;28;20299;-67
2022/09/15 04:53:24;;;;;;;;;;;13.50;99.90;;;;;;5011091;28;20252;-67
2022/09/15 04:55:49;;;;;;;;;;;13.50;99.90;;;;;;5020411;28;19932;-67
2022/09/15 04:58:15;;;;;;;;;;;13.50;99.90;;;;;;5031112;28;19928;-67
2022/09/15 05:00:44;;;;;;;;;;;13.60;99.90;;;;;;5028009;28;19967;-67
2022/09/15 05:03:10;;;;;;;;;;;13.60;99.90;;;;;;5020618;28;19928;-67
2022/09/15 05:05:36;;;;;;;;;;;13.60;99.90;;;;;;5027926;28;20019;-67
2022/09/15 05:08:02;;;;;;;;;;;13.60;99.90;;;;;;5012316;28;20434;-67
2022/09/15 05:10:27;;;;;;;;;;;13.60;99.90;;;;;;5031094;28;20275;-67
2022/09/15 05:12:53;;;;;;;;;;;13.70;99.90;;;;;;5030719;28;19925;-67
2022/09/15 05:15:18;;;;;;;;;;;13.70;99.90;;;;;;5007297;28;19921;-67
2022/09/15 05:17:44;;;;;;;;;;;13.70;99.90;;;;;;5018777;28;20012;-67
2022/09/15 05:20:10;;;;;;;;;;;13.70;99.90;;;;;;5008306;28;19921;-67
2022/09/15 05:22:35;;;;;;;;;;;13.70;99.90;;;;;;5021315;28;19921;-67
2022/09/15 05:25:00;;;;;;;;;;;13.70;99.90;;;;;;5021516;28;20028;-67
2022/09/15 05:27:29;;;;;;;;;;;13.70;99.90;;;;;;5030609;28;20330;-67
2022/09/15 05:29:54;;;;;;;;;;;13.70;99.90;;;;;;5028422;28;20305;-67
2022/09/15 05:32:20;;;;;;;;;;;13.80;99.90;;;;;;5030510;28;20013;-67
2022/09/15 05:34:45;;;;;;;;;;;13.70;99.90;;;;;;5012089;28;20452;-67
2022/09/15 05:37:11;;;;;;;;;;;13.70;99.90;;;;;;5028349;28;19921;-67
2022/09/15 05:39:38;;;;;;;;;;;13.70;99.90;;;;;;5029738;28;19925;-67
2022/09/15 05:42:03;;;;;;;;;;;13.60;99.90;;;;;;5030072;28;19929;-67
2022/09/15 05:44:30;;;;;;;;;;;13.60;99.90;;;;;;5029549;28;19931;-67
2022/09/15 05:46:55;;;;;;;;;;;13.60;99.90;;;;;;5026691;28;19963;-67
2022/09/15 05:49:21;;;;;;;;;;;13.60;99.90;;;;;;5028258;28;20034;-67
2022/09/15 05:51:46;;;;;;;;;;;13.60;99.90;;;;;;5009381;28;19932;-67
2022/09/15 05:54:12;;;;;;;;;;;13.60;99.90;;;;;;5027603;28;19952;-67
2022/09/15 05:56:37;;;;;;;;;;;13.70;99.90;;;;;;5011184;28;19931;-67
2022/09/15 05:59:03;;;;;;;;;;;13.80;99.90;;;;;;5011752;28;19929;-67
2022/09/15 06:01:28;;;;;;;;;;;13.90;99.90;;;;;;5007008;28;19947;-67
2022/09/15 06:03:54;;;;;;;;;;;14.00;99.90;;;;;;5028920;28;19921;-67
2022/09/15 06:06:20;;;;;;;;;;;14.00;99.90;;;;;;5032700;28;19922;-67
2022/09/15 06:08:48;;;;;;;;;;;14.10;99.90;;;;;;5032294;28;19925;-67
2022/09/15 06:11:14;;;;;;;;;;;14.10;99.90;;;;;;5014355;28;19971;-67
2022/09/15 06:13:40;;;;;;;;;;;14.20;99.90;;;;;;5013847;28;20555;-67
2022/09/15 06:16:07;;;;;;;;;;;14.30;99.90;;;;;;5030879;28;19928;-67
2022/09/15 06:18:34;;;;;;;;;;;14.30;99.90;;;;;;5012811;28;19927;-67
2022/09/15 06:21:04;;;;;;;;;;;14.30;99.90;;;;;;5014320;28;19944;-67
2022/09/15 06:23:29;;;;;;;;;;;14.30;99.90;;;;;;5016626;28;19983;-67
2022/09/15 06:25:54;;;;;;;;;;;14.40;99.90;;;;;;5024451;28;19957;-67
2022/09/15 06:28:20;;;;;;;;;;;14.40;99.90;;;;;;5032492;28;19948;-67
2022/09/15 06:30:48;;;;;;;;;;;14.50;99.90;;;;;;5013516;28;19921;-67
2022/09/15 06:33:14;;;;;;;;;;;14.50;99.90;;;;;;5013963;28;19935;-67
2022/09/15 06:35:39;;;;;;;;;;;14.60;99.90;;;;;;5012595;28;20011;-67
2022/09/15 06:38:05;;;;;;;;;;;14.60;99.90;;;;;;5013805;28;20346;-67
2022/09/15 06:40:30;;;;;;;;;;;14.70;99.90;;;;;;5017510;28;20359;-67
2022/09/15 06:42:56;;;;;;;;;;;14.80;99.90;;;;;;5022608;28;19987;-67
2022/09/15 06:45:21;;;;;;;;;;;14.90;99.90;;;;;;5032178;28;19925;-67
2022/09/15 06:47:47;;;;;;;;;;;15.00;99.90;;;;;;5034392;28;20012;-67
2022/09/15 06:50:12;;;;;;;;;;;15.10;99.90;;;;;;5011289;28;19957;-67
2022/09/15 06:52:38;;;;;;;;;;;15.20;99.90;;;;;;5031989;28;19925;-67
2022/09/15 06:55:04;;;;;;;;;;;15.30;99.90;;;;;;5031222;28;19971;-67
2022/09/15 06:57:29;;;;;;;;;;;15.30;99.90;;;;;;4997525;28;20551;-67
2022/09/15 06:59:55;;;;;;;;;;;15.40;99.90;;;;;;5003629;28;20036;-67
2022/09/15 07:02:20;;;;;;;;;;;15.40;99.90;;;;;;5027054;28;19987;-67
2022/09/15 07:04:45;;;;;;;;;;;15.40;99.90;;;;;;5032233;28;19932;-67
2022/09/15 07:07:11;;;;;;;;;;;15.50;99.90;;;;;;5027771;28;19929;-68
2022/09/15 07:09:37;;;;;;;;;;;15.60;99.90;;;;;;5033296;28;20456;-67
2022/09/15 07:12:03;;;;;;;;;;;16.00;99.90;;;;;;5027557;28;19921;-67
2022/09/15 07:14:28;;;;;;;;;;;16.60;99.90;;;;;;5031403;28;19921;-67
2022/09/15 07:16:54;;;;;;;;;;;16.80;99.90;;;;;;5013370;28;20799;-68
2022/09/15 07:19:19;;;;;;;;;;;16.80;99.90;;;;;;5031881;28;19925;-68
2022/09/15 07:21:45;;;;;;;;;;;16.70;99.90;;;;;;5032777;28;19957;-70
2022/09/15 07:24:11;;;;;;;;;;;16.70;99.90;;;;;;5028352;28;20012;-68
2022/09/15 07:26:37;;;;;;;;;;;16.70;99.90;;;;;;5013176;28;20279;-68
2022/09/15 07:29:03;;;;;;;;;;;16.60;99.90;;;;;;5013198;28;19931;-68
2022/09/15 07:31:30;;;;;;;;;;;16.70;99.90;;;;;;5019961;28;19931;-67
2022/09/15 07:33:57;;;;;;;;;;;16.80;99.90;;;;;;5002909;28;19929;-67
2022/09/15 07:36:23;;;;;;;;;;;16.80;99.90;;;;;;5012333;28;19932;-67
2022/09/15 07:38:49;;;;;;;;;;;16.90;99.90;;;;;;5018893;28;19921;-67
2022/09/15 07:41:16;;;;;;;;;;;17.00;99.90;;;;;;5030867;28;20412;-67
2022/09/15 07:43:45;;;;;;;;;;;17.10;99.90;;;;;;5033302;28;19928;-68
2022/09/15 07:46:11;;;;;;;;;;;17.10;99.90;;;;;;5041821;28;20015;-68
2022/09/15 07:48:36;;;;;;;;;;;17.30;99.90;;;;;;5014350;28;20020;-68
2022/09/15 07:51:02;;;;;;;;;;;17.20;99.90;;;;;;5014947;28;19925;-68
2022/09/15 07:53:28;;;;;;;;;;;17.40;99.90;;;;;;5010290;28;19925;-68
2022/09/15 07:55:54;;;;;;;;;;;17.50;99.90;;;;;;5030661;28;19925;-67
2022/09/15 07:58:19;;;;;;;;;;;17.50;99.90;;;;;;5031965;28;20020;-67
2022/09/15 08:00:46;;;;;;;;;;;17.40;99.90;;;;;;5013690;28;19921;-68
2022/09/15 08:03:12;;;;;;;;;;;17.40;99.90;;;;;;5032278;28;20464;-68
2022/09/15 08:05:37;;;;;;;;;;;17.50;99.90;;;;;;4998618;28;19921;-68
2022/09/15 08:08:03;;;;;;;;;;;17.50;99.90;;;;;;5014601;28;20375;-68
2022/09/15 08:10:28;;;;;;;;;;;17.60;99.90;;;;;;5011740;28;19921;-68
2022/09/15 08:12:54;;;;;;;;;;;17.50;99.90;;;;;;5028482;28;19932;-68
2022/09/15 08:15:20;;;;;;;;;;;17.50;99.90;;;;;;5020601;28;19925;-68
2022/09/15 08:17:45;;;;;;;;;;;17.50;99.90;;;;;;5013129;28;19929;-68
2022/09/15 08:20:11;;;;;;;;;;;17.30;99.90;;;;;;5010697;28;19971;-68
2022/09/15 08:22:38;;;;;;;;;;;17.20;99.90;;;;;;5032403;28;19951;-68
2022/09/15 08:25:04;;;;;;;;;;;17.20;99.90;;;;;;5014222;28;19933;-68
2022/09/15 08:27:30;;;;;;;;;;;17.10;99.90;;;;;;5011095;28;20291;-68
2022/09/15 08:29:55;;;;;;;;;;;17.00;99.90;;;;;;5010907;28;19967;-68
2022/09/15 08:32:21;;;;;;;;;;;17.10;99.90;;;;;;5030273;28;19921;-68
2022/09/15 08:34:46;;;;;;;;;;;17.30;99.90;;;;;;5017264;28;19925;-68
2022/09/15 08:37:11;;;;;;;;;;;17.50;99.90;;;;;;5024770;28;19956;-68
2022/09/15 08:39:37;;;;;;;;;;;17.50;99.90;;;;;;5074083;22;19974;-67
2022/09/15 08:42:03;;;;;;;;;;;17.80;99.90;;;;;;5073192;28;20019;-68
2022/09/15 08:44:48;;;;;;;;;;;18.10;99.90;;;;;;5091658;28;19977;-67
2022/09/15 08:47:19;;;;;;;;;;;18.30;99.90;;;;;;5086199;28;19924;-68
2022/09/15 08:49:47;;;;;;;;;;;18.30;99.80;;;;;;5084980;28;19924;-68
2022/09/15 08:52:20;;;;;;;;;;;18.60;99.90;;;;;;5073527;28;19943;-67
2022/09/15 08:54:45;;;;;;;;;;;18.60;99.60;;;;;;5066680;28;20370;-68
2022/09/15 08:57:15;;;;;;;;;;;18.50;99.00;;;;;;5088456;28;20007;-67
2022/09/15 08:59:40;;;;;;;;;;;18.50;99.90;;;;;;5086151;28;19921;-67
2022/09/15 09:02:06;;;;;;;;;;;18.50;99.90;;;;;;5086832;28;19927;-67
2022/09/15 09:04:39;;;;;;;;;;;18.50;99.80;;;;;;5075015;28;19920;-67
2022/09/15 09:07:16;;;;;;;;;;;18.50;99.90;;;;;;5091823;28;19924;-66
2022/09/15 09:09:47;;;;;;;;;;;18.40;99.90;;;;;;5090957;28;19920;-67
2022/09/15 09:12:12;;;;;;;;;;;18.40;99.90;;;;;;5072854;28;19933;-67
2022/09/15 09:14:52;;;;;;;;;;;18.20;99.90;;;;;;5091337;28;19924;-67
2022/09/15 09:17:20;;;;;;;;;;;17.40;99.90;;;;;;5072264;28;19924;-67
2022/09/15 09:20:00;;;;;;;;;;;17.00;99.90;;;;;;5091842;28;19959;-67
2022/09/15 09:22:29;;;;;;;;;;;16.70;99.90;;;;;;5091723;28;20400;-67
2022/09/15 09:24:56;;;;;;;;;;;16.40;99.90;;;;;;5072958;28;20161;-67
2022/09/15 09:27:23;;;;;;;;;;;16.10;99.90;;;;;;5087526;28;19928;-67
2022/09/15 09:30:21;;;;;;;;;;;16.20;99.90;;;;;;5071372;28;20392;-67
2022/09/15 09:33:07;;;;;;;;;;;16.20;99.90;;;;;;5014278;28;19921;-66
2022/09/15 09:35:36;;;;;;;;;;;16.10;99.90;;;;;;5065981;28;19920;-67
2022/09/15 09:38:03;;;;;;;;;;;16.20;99.90;;;;;;5056093;28;20588;-66
2022/09/15 09:40:30;;;;;;;;;;;16.40;99.90;;;;;;5075501;28;19920;-67
2022/09/15 09:42:56;;;;;;;;;;;16.60;99.90;;;;;;5096013;28;19924;-67
2022/09/15 09:45:22;;;;;;;;;;;16.80;99.90;;;;;;5075848;28;19927;-67
2022/09/15 09:47:48;;;;;;;;;;;17.10;99.90;;;;;;5077166;28;19924;-67
2022/09/15 09:50:30;;;;;;;;;;;17.20;99.90;;;;;;5047446;28;19974;-67
2022/09/15 09:52:56;;;;;;;;;;;17.20;99.90;;;;;;5075310;28;19955;-67
2022/09/15 09:55:22;;;;;;;;;;;17.30;99.90;;;;;;5086694;28;19955;-68
2022/09/15 09:57:48;;;;;;;;;;;17.50;99.90;;;;;;5091357;28;20476;-67
2022/09/15 10:00:33;;;;;;;;;;;17.40;99.90;;;;;;5093022;28;19920;-67
2022/09/15 10:03:08;;;;;;;;;;;17.50;99.90;;;;;;5074877;28;20269;-67
2022/09/15 10:05:33;;;;;;;;;;;17.70;99.90;;;;;;5095232;28;19959;-67
2022/09/15 10:08:00;;;;;;;;;;;17.80;99.90;;;;;;5076664;28;20340;-67
2022/09/15 10:10:27;;;;;;;;;;;17.90;99.90;;;;;;5076618;28;20415;-67
2022/09/15 10:12:56;;;;;;;;;;;18.10;99.90;;;;;;5073965;28;20461;-67
2022/09/15 10:15:23;;;;;;;;;;;18.00;99.90;;;;;;5094305;28;19920;-66
2022/09/15 10:17:50;;;;;;;;;;;18.20;99.90;;;;;;5076575;28;20285;-67
2022/09/15 10:20:27;;;;;;;;;;;18.10;99.90;;;;;;5078990;28;19931;-67
2022/09/15 10:23:11;;;;;;;;;;;18.10;99.90;;;;;;5076912;28;19920;-67
2022/09/15 10:25:37;;;;;;;;;;;18.00;99.90;;;;;;5096241;28;19928;-67
2022/09/15 10:28:18;;;;;;;;;;;18.00;99.90;;;;;;5092958;28;19924;-67
2022/09/15 10:31:02;;;;;;;;;;;17.90;99.90;;;;;;5091762;28;19963;-67
2022/09/15 10:33:29;;;;;;;;;;;17.80;99.90;;;;;;5100085;28;19927;-67
2022/09/15 10:35:59;;;;;;;;;;;17.90;99.90;;;;;;5073353;28;20407;-67
2022/09/15 10:38:30;;;;;;;;;;;18.00;99.90;;;;;;5093448;28;19928;-66
2022/09/15 10:40:58;;;;;;;;;;;18.10;99.90;;;;;;5074881;28;20011;-66
2022/09/15 10:43:36;;;;;;;;;;;18.20;99.90;;;;;;5074302;28;20311;-66
2022/09/15 10:46:11;;;;;;;;;;;18.50;99.60;;;;;;5075361;28;19930;-67
2022/09/15 10:48:41;;;;;;;;;;;18.70;99.90;;;;;;5091204;28;19935;-67
2022/09/15 10:51:23;;;;;;;;;;;19.00;99.90;;;;;;5082652;28;20277;-67
2022/09/15 10:54:11;;;;;;;;;;;19.30;99.90;;;;;;5075267;28;19931;-66
2022/09/15 10:56:39;;;;;;;;;;;19.70;96.50;;;;;;5082250;28;19938;-66
2022/09/15 10:59:20;;;;;;;;;;;20.00;97.90;;;;;;5075001;28;19928;-67
2022/09/15 11:01:52;;;;;;;;;;;20.10;97.00;;;;;;5093133;28;20007;-66
2022/09/15 11:04:36;;;;;;;;;;;20.10;96.30;;;;;;5094224;28;19920;-66
2022/09/15 11:07:33;;;;;;;;;;;20.10;97.00;;;;;;5093643;28;19924;-66
2022/09/15 11:09:59;;;;;;;;;;;19.60;99.00;;;;;;5050364;28;19968;-66
2022/09/15 11:12:40;;;;;;;;;;;18.90;99.90;;;;;;5073551;28;19971;-66
2022/09/15 11:15:16;;;;;;;;;;;18.30;99.90;;;;;;5059231;28;19927;-67
2022/09/15 11:17:52;;;;;;;;;;;18.00;99.90;;;;;;5074370;28;20373;-66
2022/09/15 11:20:44;;;;;;;;;;;18.00;99.90;;;;;;5092962;28;19973;-66
2022/09/15 11:23:21;;;;;;;;;;;18.10;99.90;;;;;;5068457;28;20425;-67
2022/09/15 11:25:53;;;;;;;;;;;18.00;99.90;;;;;;5092936;28;20031;-66
2022/09/15 11:28:26;;;;;;;;;;;18.20;99.90;;;;;;5093163;28;20015;-67
2022/09/15 11:30:55;;;;;;;;;;;18.20;99.90;;;;;;5093644;28;19928;-66
2022/09/15 11:33:24;;;;;;;;;;;18.10;99.90;;;;;;5074055;28;19939;-67
2022/09/15 11:35:55;;;;;;;;;;;18.20;99.90;;;;;;5093434;28;20014;-66
2022/09/15 11:38:20;;;;;;;;;;;18.40;99.90;;;;;;5093399;28;19975;-67
2022/09/15 11:41:06;;;;;;;;;;;18.70;99.90;;;;;;5092379;28;19979;-67
2022/09/15 11:43:41;;;;;;;;;;;19.20;98.90;;;;;;5074542;28;20413;-66
2022/09/15 11:46:11;;;;;;;;;;;18.80;97.10;;;;;;5056802;28;19927;-67
2022/09/15 11:48:50;;;;;;;;;;;19.20;97.50;;;;;;5092840;28;20441;-66
2022/09/15 11:51:18;;;;;;;;;;;19.30;95.10;;;;;;5073727;28;19920;-67
2022/09/15 11:53:56;;;;;;;;;;;19.60;97.40;;;;;;5092929;28;19926;-66
2022/09/15 11:56:28;;;;;;;;;;;19.40;94.50;;;;;;5092966;28;19920;-67
2022/09/15 11:59:12;;;;;;;;;;;19.50;94.50;;;;;;5089768;28;20354;-66
2022/09/15 12:01:58;;;;;;;;;;;19.40;95.80;;;;;;5076729;28;19978;-67
2022/09/15 12:04:28;;;;;;;;;;;18.80;93.90;;;;;;5072611;28;19928;-67
2022/09/15 12:06:58;;;;;;;;;;;18.90;95.50;;;;;;5057484;28;19931;-67
2022/09/15 12:09:24;;;;;;;;;;;18.90;95.10;;;;;;5093099;28;19930;-67
2022/09/15 12:11:52;;;;;;;;;;;19.10;96.70;;;;;;5074323;28;19920;-67
2022/09/15 12:14:20;;;;;;;;;;;19.20;96.90;;;;;;5091727;28;20286;-66
2022/09/15 12:16:46;;;;;;;;;;;19.00;95.30;;;;;;5074012;28;20285;-67
2022/09/15 12:19:36;;;;;;;;;;;19.00;96.40;;;;;;5054766;28;19921;-67
2022/09/15 12:22:08;;;;;;;;;;;18.90;95.60;;;;;;5072012;28;19920;-67
2022/09/15 12:24:37;;;;;;;;;;;18.90;95.70;;;;;;5063941;28;19924;-66
2022/09/15 12:27:03;;;;;;;;;;;18.80;95.00;;;;;;5073126;28;19924;-67
2022/09/15 12:29:38;;;;;;;;;;;18.80;95.80;;;;;;5092452;28;20015;-67
2022/09/15 12:32:27;;;;;;;;;;;19.00;96.30;;;;;;5092351;28;20383;-66
2022/09/15 12:34:56;;;;;;;;;;;18.80;94.60;;;;;;5074226;28;19923;-67
2022/09/15 12:37:23;;;;;;;;;;;18.70;93.70;;;;;;5073981;28;19974;-67
2022/09/15 12:39:49;;;;;;;;;;;18.60;95.20;;;;;;5090742;28;19928;-66
2022/09/15 12:42:17;;;;;;;;;;;18.70;95.50;;;;;;5072680;28;19929;-67
2022/09/15 12:44:46;;;;;;;;;;;19.10;96.50;;;;;;5072047;28;19935;-67
2022/09/15 12:47:17;;;;;;;;;;;19.40;95.60;;;;;;5071785;28;19978;-67
2022/09/15 12:49:44;;;;;;;;;;;19.50;95.00;;;;;;5083009;28;20339;-67
2022/09/15 12:52:10;;;;;;;;;;;19.50;93.70;;;;;;5091945;28;19919;-68
2022/09/15 12:54:37;;;;;;;;;;;19.60;95.30;;;;;;5091331;28;19924;-66
2022/09/15 12:57:04;;;;;;;;;;;19.20;93.40;;;;;;5090393;28;20370;-67
2022/09/15 12:59:29;;;;;;;;;;;19.40;94.10;;;;;;5071458;28;19924;-67
2022/09/15 13:01:55;;;;;;;;;;;19.40;95.40;;;;;;5087478;28;20019;-67
2022/09/15 13:04:39;;;;;;;;;;;18.90;93.40;;;;;;5098407;28;20374;-67
2022/09/15 13:07:14;;;;;;;;;;;18.80;95.90;;;;;;5091735;28;19928;-67
2022/09/15 13:09:43;;;;;;;;;;;18.40;95.70;;;;;;5076602;28;20328;-67
2022/09/15 13:12:11;;;;;;;;;;;18.20;95.70;;;;;;5064194;28;19924;-67
2022/09/15 13:14:38;;;;;;;;;;;18.00;95.80;;;;;;5057744;28;19958;-66
2022/09/15 13:17:13;;;;;;;;;;;18.10;96.90;;;;;;5080407;28;20422;-67
2022/09/15 13:19:40;;;;;;;;;;;18.10;97.30;;;;;;5079526;28;19942;-67
2022/09/15 13:22:22;;;;;;;;;;;18.20;97.70;;;;;;5063484;28;19920;-67
2022/09/15 13:25:07;;;;;;;;;;;18.30;97.80;;;;;;5098488;28;20358;-67
2022/09/15 13:27:35;;;;;;;;;;;18.50;96.70;;;;;;5059467;28;19951;-66
2022/09/15 13:30:19;;;;;;;;;;;18.60;96.70;;;;;;5095275;28;19927;-67
2022/09/15 13:33:03;;;;;;;;;;;18.70;96.30;;;;;;5098476;28;19931;-67
2022/09/15 13:35:41;;;;;;;;;;;18.70;97.30;;;;;;5096333;28;20007;-66
2022/09/15 13:38:12;;;;;;;;;;;18.80;97.00;;;;;;5098144;28;19924;-67
2022/09/15 13:40:40;;;;;;;;;;;18.80;96.50;;;;;;5098138;28;20011;-67
2022/09/15 13:43:25;;;;;;;;;;;18.70;97.30;;;;;;5087390;28;20377;-66
2022/09/15 13:46:02;;;;;;;;;;;18.80;96.30;;;;;;5053229;28;19927;-67
2022/09/15 13:48:40;;;;;;;;;;;19.00;96.30;;;;;;5077125;28;19924;-67
2022/09/15 13:51:16;;;;;;;;;;;19.10;96.40;;;;;;5078020;28;19928;-66
2022/09/15 13:53:45;;;;;;;;;;;19.20;96.30;;;;;;5059964;28;19920;-66
2022/09/15 13:56:14;;;;;;;;;;;19.20;96.00;;;;;;5077804;28;20477;-66
2022/09/15 13:58:41;;;;;;;;;;;19.20;96.50;;;;;;5059053;28;20363;-66
2022/09/15 14:01:07;;;;;;;;;;;19.30;96.60;;;;;;5087196;28;19928;-67
2022/09/15 14:03:36;;;;;;;;;;;19.40;96.60;;;;;;5085901;28;19924;-66
2022/09/15 14:06:02;;;;;;;;;;;19.20;95.10;;;;;;5077583;28;19959;-67
2022/09/15 14:08:31;;;;;;;;;;;19.30;96.40;;;;;;5097613;28;19924;-67
2022/09/15 14:10:59;;;;;;;;;;;19.20;94.70;;;;;;5079682;28;19920;-67
2022/09/15 14:13:26;;;;;;;;;;;19.10;95.60;;;;;;5096944;28;19977;-67
2022/09/15 14:16:07;;;;;;;;;;;19.00;95.80;;;;;;5061488;28;19919;-66
2022/09/15 14:18:40;;;;;;;;;;;19.00;96.70;;;;;;5077566;28;19920;-67
2022/09/15 14:21:14;;;;;;;;;;;18.80;96.70;;;;;;5096737;28;19927;-67
2022/09/15 14:23:47;;;;;;;;;;;18.60;95.40;;;;;;5075585;28;19924;-66
2022/09/15 14:26:13;;;;;;;;;;;18.60;96.70;;;;;;5089343;28;19928;-66
2022/09/15 14:28:39;;;;;;;;;;;18.40;97.20;;;;;;5071973;28;19928;-67